PDT,Max TemperatureF,Mean TemperatureF,Min TemperatureF,Max Dew PointF,MeanDew PointF,Min DewpointF,Max Humidity, Mean Humidity, Min Humidity, Max Sea Level PressureIn, Mean Sea Level PressureIn, Min Sea Level PressureIn, Max VisibilityMiles, Mean VisibilityMiles, Min VisibilityMiles, Max Wind SpeedMPH, Mean Wind SpeedMPH, Max Gust SpeedMPH,PrecipitationIn, CloudCover, Events, WindDirDegrees
2013-3-1,59,54,50,48,47,46,88,78,67,30.43,30.38,30.32,10,10,10,15,7,18,0.00,8,,155
2013-3-2,55,48,41,48,43,36,93,83,71,30.32,30.23,30.16,10,10,5,12,3,17,0.04,5,,218
2013-3-3,51,42,33,39,34,30,93,79,50,30.32,30.30,30.28,10,9,2,9,1,,0.05,4,,299
2013-3-4,59,44,30,34,29,21,93,66,25,30.29,30.10,29.92,10,7,0,13,2,20,0.00,3,,79
2013-3-5,46,38,30,39,35,27,93,81,66,29.92,29.82,29.68,10,10,5,9,2,,0.07,7,,149
2013-3-6,44,42,39,41,38,37,93,84,76,29.95,29.71,29.57,10,8,2,13,3,18,0.34,8,,156
2013-3-7,55,45,35,37,35,28,87,68,36,30.07,30.03,29.95,10,10,10,14,7,18,0.00,3,,165
2013-3-8,55,42,30,39,34,27,93,74,51,30.24,30.11,30.07,10,10,7,15,3,20,0.00,2,,343
2013-3-9,57,42,28,39,34,27,93,75,44,30.51,30.42,30.24,10,8,0,7,1,,0.00,2,,271
2013-3-10,48,40,32,43,37,28,93,81,70,30.52,30.47,30.43,10,9,5,7,1,,0.02,7,,146
2013-3-11,53,48,44,46,43,41,93,82,67,30.45,30.35,30.23,10,8,2,10,3,,0.00,8,,155
2013-3-12,59,54,48,48,46,45,93,78,59,30.23,30.18,30.16,10,10,5,13,6,18,0.00,8,,152
2013-3-13,60,55,50,46,45,45,87,74,55,30.23,30.18,30.10,10,10,10,12,4,,0.00,6,,148
2013-3-14,51,48,46,46,45,45,93,88,82,30.12,30.09,30.06,10,9,7,4,0,,0.00,6,,268
2013-3-15,60,54,48,52,46,45,88,75,59,30.23,30.21,30.19,10,10,3,9,5,,0.11,8,,202
2013-3-16,51,45,39,45,41,34,93,81,66,30.19,30.10,30.02,10,10,2,15,3,24,0.23,8,,203
2013-3-17,46,42,37,37,34,30,87,76,53,30.30,30.25,30.12,10,10,3,13,4,23,0.27,7,,204
2013-3-18,53,44,35,39,35,30,93,74,50,30.28,30.25,30.20,10,10,8,10,4,,0.03,5,,166
2013-3-19,51,42,33,43,35,28,87,79,54,30.20,29.96,29.65,10,10,6,15,2,22,0.40,5,,143
2013-3-20,53,45,37,48,41,32,93,80,66,30.15,29.76,29.48,10,9,3,18,10,30,0.70,7,,198
2013-3-21,46,42,37,37,34,30,87,81,66,30.31,30.25,30.15,10,10,5,13,6,25,0.26,7,,188
2013-3-22,46,40,33,36,32,28,87,80,53,30.41,30.35,30.30,10,10,4,14,2,17,0.06,6,,201
2013-3-23,50,42,33,34,30,25,87,72,37,30.41,30.37,30.30,10,10,5,7,1,,0.01,2,,262
2013-3-24,57,45,33,34,31,28,87,64,36,30.30,30.20,30.11,10,10,10,12,2,,0.00,6,,11
2013-3-25,62,48,35,37,34,30,87,61,37,30.12,30.01,29.91,10,10,2,7,1,,0.00,5,,316
2013-3-26,57,50,44,45,41,37,87,72,51,30.03,30.00,29.98,10,10,10,9,2,,0.00,7,,151
2013-3-27,64,54,44,46,43,37,93,72,37,30.01,29.95,29.91,10,10,8,9,1,,0.11,6,,169
2013-3-28,62,55,48,48,45,39,93,74,42,30.15,30.07,30.01,10,9,3,6,2,,0.14,7,,251
2013-3-29,66,56,46,48,45,43,93,68,43,30.23,30.19,30.15,10,10,10,9,2,,0.00,5,,326
2013-3-30,73,58,42,48,43,37,87,60,38,30.23,30.13,30.02,10,10,10,14,4,20,0.00,0,,348
2013-3-31,77,59,41,48,43,37,87,65,32,30.02,29.98,29.89,10,10,7,10,1,16,0.00,0,,295